Skip to main content.
 TIME   TEMPERATURE   WINDSPEED   DIRECTION   HUMIDITY   BAROMETER   RAINFALL 
1:00 15.6°C (60.1°F) 42.6 kmh (26.5 mph) SSW 82% 1026.0hPa (30.30 inHg) 10.0mm (0.39 in.)
12:00 15.3°C (59.5 °F) 31.5 kmh (19.6 mph) SSW 81% 1026.0hPa (30.30 inHg) 9.0mm (0.35 in.)
11:00 16.1°C (61.0 °F) 27.8 kmh (17.3 mph) SSW 79% 1025.0hPa (30.27 inHg) 3.0mm (0.12 in.)
10:00 16.0°C (60.8 °F) 25.9 kmh (16.1 mph) SSW 80% 1025.0hPa (30.27 inHg) 3.0mm (0.12 in.)
9:00 15.9°C (60.6 °F) 16.7 kmh (10.4 mph) SSW 80% 1025.0hPa (30.27 inHg) 3.0mm (0.12 in.)
8:00 15.9°C (60.6 °F) 16.7 kmh (10.4 mph) SSW 80% 1024.0hPa (30.24 inHg) 3.0mm (0.12 in.)
7:00 15.8°C (60.4 °F) 13.0 kmh (8.1 mph) SSW 80% 1024.0hPa (30.24 inHg) 3.0mm (0.12 in.)
6:00 15.9°C (60.6 °F) 13.0 kmh (8.1 mph) SSW 80% 1023.0hPa (30.21 inHg) 3.0mm (0.12 in.)
5:00 16.0°C (60.8 °F) 25.9 kmh (16.1 mph) SSW 80% 1023.0hPa (30.21 inHg) 3.0mm (0.12 in.)
4:00 16.0°C (60.8 °F) 18.5 kmh (11.5 mph) SW 80% 1022.0hPa (30.18 inHg) 3.0mm (0.12 in.)
3:00 16.1°C (61.0 °F) 22.2 kmh (13.8 mph) SSW 79% 1022.0hPa (30.18 inHg) 2.0mm (0.08 in.)
2:00 16.1°C (61.0 °F) 18.5 kmh (11.5 mph) SSW 79% 1021.0hPa (30.15 inHg) 2.0mm (0.08 in.)
1:00 16.0°C (60.8 °F) 16.7 kmh (10.4 mph) SSW 78% 1022.0hPa (30.18 inHg) 1.0mm (0.04 in.)
12:00 16.5°C (61.7 °F) 18.5 kmh (11.5 mph) SSW 78% 1022.0hPa (30.18 inHg) 1.0mm (0.04 in.)
11:00 16.5°C (61.7 °F) 18.5 kmh (11.5 mph) SSW 78% 1023.0hPa (30.21 inHg) 1.0mm (0.04 in.)
10:00 16.3°C (61.3 °F) 20.4 kmh (12.7 mph) SSW 77% 1023.0hPa (30.21 inHg) 1.0mm (0.04 in.)
9:00 16.2°C (61.2 °F) 13.0 kmh (8.1 mph) SW 77% 1022.0hPa (30.18 inHg) 1.0mm (0.04 in.)
7:54 16.2°C (61.2 °F) 24.1 kmh (15.0 mph) SSW 76% 1021.0hPa (30.15 inHg) 0.0mm (0.00 in.)
6:54 16.2°C (61.2 °F) 13.0 kmh (8.1 mph) SSW 75% 1021.0hPa (30.15 inHg) 0.0mm (0.00 in.)
5:54 16.2°C (61.2 °F) 13.0 kmh (8.1 mph) SSW 75% 1021.0hPa (30.15 inHg) 0.0mm (0.00 in.)
4:54 16.2°C (61.2 °F) 0.0 kmh (0.0 mph) SSW 74% 1020.0hPa (30.12 inHg) 0.0mm (0.00 in.)
3:54 16.1°C (61.0 °F) 11.1 kmh (6.9 mph) SSW 73% 1020.0hPa (30.12 inHg) 0.0mm (0.00 in.)
2:54 16.4°C (61.5 °F) 0.0 kmh (0.0 mph) SW 72% 1021.0hPa (30.15 inHg) 0.0mm (0.00 in.)
1:54 16.3°C (61.3 °F) 0.0 kmh (0.0 mph) WSW 72% 1021.0hPa (30.15 inHg) 0.0mm (0.00 in.)